New Raymer, Colorado
Current Conditions -  °F | °C
As of 2:15 PM on Saturday 22 Nov 2014 (Local Time) from KFMM Reporting Station
Clear Clear  
Wind Chill: 59°   Ceiling: Unl
Heat Index: 59°   Visibility: 10mi
Dew Point: 17°   Wind: 0mph
Humidity: 20%   Direction: NA
Pressure: 29.59"   Gusts: NA
Location:  40.61°N, 103.84°W
Report Text: KFMM 222115Z AUTO 00000KT 10SM CLR 15/M08 A2959 RMK AO2 T01481083
Loading
Personal Weather Stations






























Interactive Weather Map New forecast layout! Learn more

10-Day Weather Forecast

Advertisements
Track Severe Weather on mobile